createdAt,value
2018-12-03T00:01:58.770Z,11.50
2018-12-03T00:04:28.774Z,11.49
2018-12-03T00:06:59.020Z,11.51
2018-12-03T00:09:29.053Z,11.62
2018-12-03T00:11:59.056Z,11.71
2018-12-03T00:14:28.942Z,11.92
2018-12-03T00:16:58.871Z,12.08
2018-12-03T00:19:28.772Z,12.19
2018-12-03T00:21:58.819Z,12.30
2018-12-03T00:24:28.851Z,12.28
2018-12-03T00:26:58.827Z,12.32
2018-12-03T00:29:28.646Z,12.29
2018-12-03T00:31:58.572Z,12.36
2018-12-03T00:34:28.437Z,12.36
2018-12-03T00:36:58.457Z,12.47
2018-12-03T00:39:28.272Z,12.49
2018-12-03T00:41:58.206Z,12.47
2018-12-03T00:44:28.089Z,12.45
2018-12-03T00:46:58.080Z,12.42
2018-12-03T00:49:28.276Z,12.43
2018-12-03T00:51:58.156Z,12.38
2018-12-03T00:54:28.108Z,12.38
2018-12-03T00:56:58.041Z,12.37
2018-12-03T00:59:27.975Z,12.39
2018-12-03T01:01:57.956Z,12.39
2018-12-03T01:04:27.927Z,12.44
2018-12-03T01:06:58.176Z,12.52
2018-12-03T01:09:28.026Z,12.53
2018-12-03T01:11:58.091Z,12.48
2018-12-03T01:14:28.325Z,12.43
2018-12-03T01:16:58.224Z,12.29
2018-12-03T01:22:18.943Z,12.20
2018-12-03T01:24:48.940Z,12.19
2018-12-03T01:27:18.869Z,12.14
2018-12-03T01:29:48.827Z,12.15
2018-12-03T01:32:19.245Z,12.16
2018-12-03T01:34:49.134Z,12.24
2018-12-03T01:37:19.079Z,12.17
2018-12-03T01:39:49.018Z,12.05
2018-12-03T01:42:18.921Z,11.80
2018-12-03T01:44:48.856Z,11.73
2018-12-03T01:47:18.821Z,11.51
2018-12-03T01:49:48.773Z,11.42
2018-12-03T01:52:18.709Z,11.34
2018-12-03T01:54:48.551Z,11.32
2018-12-03T01:57:18.450Z,11.33
2018-12-03T01:59:48.337Z,11.37
2018-12-03T02:02:18.231Z,11.42
2018-12-03T02:04:48.407Z,11.41
2018-12-03T02:07:18.316Z,11.31
2018-12-03T02:09:48.225Z,11.25
2018-12-03T02:12:18.564Z,11.30
2018-12-03T02:14:48.415Z,11.27
2018-12-03T02:17:18.384Z,11.17
2018-12-03T02:19:48.252Z,11.10
2018-12-03T02:22:18.220Z,11.09
2018-12-03T02:24:48.439Z,11.11
2018-12-03T02:27:18.420Z,11.03
2018-12-03T02:29:48.410Z,11.09
2018-12-03T02:32:18.327Z,11.11
2018-12-03T02:34:48.198Z,11.19
2018-12-03T02:37:18.162Z,11.26
2018-12-03T02:39:49.577Z,11.39
2018-12-03T02:42:19.510Z,11.57
2018-12-03T02:44:49.451Z,11.53
2018-12-03T02:47:19.333Z,11.58
2018-12-03T02:49:49.332Z,11.55
2018-12-03T02:52:19.197Z,11.54
2018-12-03T02:54:49.205Z,11.46
2018-12-03T02:57:19.584Z,11.55
2018-12-03T02:59:49.556Z,11.74
2018-12-03T03:02:19.523Z,11.91
2018-12-03T03:04:49.373Z,12.01
2018-12-03T03:07:19.315Z,12.14
2018-12-03T03:09:50.657Z,12.21
2018-12-03T03:12:20.663Z,12.27
2018-12-03T03:14:50.591Z,12.29
2018-12-03T03:17:20.698Z,12.28
2018-12-03T03:19:50.563Z,12.26
2018-12-03T03:22:20.478Z,12.21
2018-12-03T03:24:50.325Z,12.18
2018-12-03T03:27:20.272Z,12.17
2018-12-03T03:29:50.260Z,12.10
2018-12-03T03:32:20.246Z,12.09
2018-12-03T03:34:50.636Z,12.05
2018-12-03T03:37:20.503Z,12.11
2018-12-03T03:39:50.404Z,12.07
2018-12-03T03:42:20.336Z,12.04
2018-12-03T03:44:50.308Z,12.01
2018-12-03T03:47:21.794Z,12.03
2018-12-03T03:49:51.743Z,11.97
2018-12-03T03:52:21.584Z,11.93
2018-12-03T03:54:54.313Z,11.87
2018-12-03T03:57:24.210Z,11.80
2018-12-03T03:59:55.060Z,11.77
2018-12-03T04:02:24.942Z,11.77
2018-12-03T04:04:54.980Z,11.86
2018-12-03T04:07:24.902Z,11.86
2018-12-03T04:09:56.905Z,11.89
2018-12-03T04:12:27.068Z,11.90
2018-12-03T04:14:57.842Z,11.93
2018-12-03T04:17:27.786Z,11.97
2018-12-03T04:19:57.809Z,11.96
2018-12-03T04:22:27.687Z,11.94
2018-12-03T04:24:57.675Z,11.95
2018-12-03T04:27:27.774Z,11.99
2018-12-03T04:29:58.928Z,11.94
2018-12-03T04:32:28.943Z,11.94
2018-12-03T04:34:59.070Z,11.98
2018-12-03T04:37:29.080Z,11.97
2018-12-03T04:39:58.972Z,12.03
2018-12-03T04:42:29.120Z,11.98
2018-12-03T04:44:59.419Z,11.97
2018-12-03T04:47:29.502Z,11.95
2018-12-03T04:49:59.469Z,12.04
2018-12-03T04:52:29.650Z,12.14
2018-12-03T04:54:59.892Z,12.01
2018-12-03T04:57:30.008Z,11.99
2018-12-03T05:00:00.009Z,12.03
2018-12-03T05:02:30.093Z,12.05
2018-12-03T05:05:00.228Z,12.08
2018-12-03T05:07:30.264Z,12.07
2018-12-03T05:12:53.189Z,12.05
2018-12-03T05:15:23.675Z,12.02
2018-12-03T05:17:54.471Z,12.04
2018-12-03T05:20:26.306Z,12.03
2018-12-03T05:22:56.291Z,12.03
2018-12-03T05:25:26.224Z,11.98
2018-12-03T05:27:59.466Z,11.91
2018-12-03T05:30:29.520Z,11.87
2018-12-03T05:33:00.306Z,11.91
2018-12-03T05:35:31.079Z,11.85
2018-12-03T05:38:01.322Z,11.79
2018-12-03T05:40:32.355Z,11.73
2018-12-03T05:43:02.745Z,11.68
2018-12-03T05:45:32.751Z,11.66
2018-12-03T05:48:03.000Z,11.69
2018-12-03T05:50:33.256Z,11.62
2018-12-03T05:53:05.137Z,11.58
2018-12-03T05:55:35.666Z,11.58
2018-12-03T05:58:06.259Z,11.62
2018-12-03T06:00:36.204Z,11.75
2018-12-03T06:03:07.167Z,11.68
2018-12-03T06:05:37.878Z,11.65
2018-12-03T06:08:08.568Z,11.68
2018-12-03T06:10:39.404Z,11.71
2018-12-03T06:13:09.396Z,11.71
2018-12-03T06:15:39.598Z,11.71
2018-12-03T06:18:09.488Z,11.70
2018-12-03T06:20:39.460Z,11.67
2018-12-03T06:23:09.395Z,11.63
2018-12-03T06:25:39.498Z,11.59
2018-12-03T06:28:09.438Z,11.58
2018-12-03T06:30:39.405Z,11.62
2018-12-03T06:33:09.529Z,11.60
2018-12-03T06:35:40.170Z,11.64
2018-12-03T06:38:15.176Z,11.69
2018-12-03T06:40:40.131Z,11.76
2018-12-03T06:43:10.124Z,11.80
2018-12-03T06:45:40.121Z,11.72
2018-12-03T06:48:12.443Z,11.70
2018-12-03T06:50:42.469Z,11.70
2018-12-03T06:53:12.493Z,11.73
2018-12-03T06:55:42.347Z,11.71
2018-12-03T06:58:12.510Z,11.66
2018-12-03T07:00:43.372Z,11.69
2018-12-03T07:03:13.376Z,11.65
2018-12-03T07:05:44.055Z,11.65
2018-12-03T07:08:14.415Z,11.75
2018-12-03T07:10:44.320Z,11.83
2018-12-03T07:13:16.880Z,11.82
2018-12-03T07:15:47.816Z,11.99
2018-12-03T07:18:17.677Z,11.87
2018-12-03T07:20:48.363Z,11.84
2018-12-03T07:23:18.661Z,11.78
2018-12-03T07:25:48.594Z,11.75
2018-12-03T07:28:18.444Z,11.80
2018-12-03T07:30:48.338Z,11.90
2018-12-03T07:33:18.251Z,11.98
2018-12-03T07:35:49.575Z,11.98
2018-12-03T07:38:19.640Z,11.92
2018-12-03T07:40:51.139Z,12.04
2018-12-03T07:43:21.052Z,12.13
2018-12-03T07:45:51.014Z,12.08
2018-12-03T07:48:21.098Z,11.98
2018-12-03T07:50:51.045Z,11.99
2018-12-03T07:53:21.780Z,12.16
2018-12-03T07:55:51.972Z,12.28
2018-12-03T07:58:23.062Z,12.39
2018-12-03T08:00:55.275Z,12.44
2018-12-03T08:03:25.186Z,12.56
2018-12-03T08:05:55.191Z,12.53
2018-12-03T08:08:25.176Z,12.55
2018-12-03T08:10:57.127Z,12.55
2018-12-03T08:13:26.998Z,12.63
2018-12-03T08:15:56.940Z,12.62
2018-12-03T08:19:08.537Z,12.75
2018-12-03T08:21:41.399Z,12.69
2018-12-03T08:24:15.893Z,12.74
2018-12-03T08:26:49.653Z,12.70
2018-12-03T08:29:22.548Z,12.79
2018-12-03T08:31:55.446Z,12.80
2018-12-03T08:34:28.816Z,12.77
2018-12-03T08:37:04.983Z,12.88
2018-12-03T08:39:40.927Z,12.90
2018-12-03T08:42:14.303Z,12.91
2018-12-03T08:44:47.636Z,12.91
2018-12-03T08:47:20.807Z,12.98
2018-12-03T08:49:54.090Z,12.98
2018-12-03T08:52:27.665Z,12.97
2018-12-03T08:55:00.814Z,13.08
2018-12-03T08:57:33.672Z,12.97
2018-12-03T09:00:12.705Z,12.90
2018-12-03T09:03:06.545Z,13.09
2018-12-03T09:05:41.817Z,13.02
2018-12-03T09:08:14.851Z,13.05
2018-12-03T09:10:49.360Z,13.21
2018-12-03T09:16:19.354Z,13.23
2018-12-03T09:18:54.578Z,13.40
2018-12-03T09:21:27.846Z,13.48
2018-12-03T09:24:01.612Z,13.60
2018-12-03T09:26:38.257Z,13.85
2018-12-03T09:29:11.402Z,14.16
2018-12-03T09:31:45.516Z,14.17
2018-12-03T09:34:18.996Z,14.07
2018-12-03T09:36:52.280Z,13.96
2018-12-03T09:39:25.735Z,13.85
2018-12-03T09:41:58.892Z,14.04
2018-12-03T09:44:33.159Z,14.39
2018-12-03T09:47:07.155Z,14.48
2018-12-03T09:49:41.297Z,14.64
2018-12-03T09:52:15.972Z,14.49
2018-12-03T09:54:48.602Z,14.70
2018-12-03T09:57:23.720Z,14.75
2018-12-03T09:59:58.356Z,14.52
2018-12-03T10:02:37.116Z,14.49
2018-12-03T10:05:14.010Z,14.52
2018-12-03T10:07:53.068Z,14.72
2018-12-03T10:10:32.306Z,15.44
2018-12-03T10:13:14.770Z,15.98
2018-12-03T10:15:54.295Z,16.22
2018-12-03T10:18:29.500Z,16.53
2018-12-03T10:21:05.881Z,16.78
2018-12-03T10:23:40.228Z,17.09
2018-12-03T10:26:15.835Z,17.22
2018-12-03T10:28:49.409Z,17.55
2018-12-03T10:31:23.421Z,17.69
2018-12-03T10:33:56.335Z,17.55
2018-12-03T10:36:29.725Z,17.72
2018-12-03T10:39:02.322Z,17.58
2018-12-03T10:41:37.546Z,17.63
2018-12-03T10:44:10.720Z,17.15
2018-12-03T10:46:48.794Z,16.72
2018-12-03T10:49:22.054Z,16.66
2018-12-03T10:51:58.377Z,17.19
2018-12-03T10:54:38.242Z,16.94
2018-12-03T10:57:13.167Z,17.13
2018-12-03T10:59:52.696Z,17.25
2018-12-03T11:02:37.514Z,17.02
2018-12-03T11:05:16.079Z,16.99
2018-12-03T11:07:50.234Z,17.07
2018-12-03T11:10:23.839Z,17.07
2018-12-03T11:12:57.109Z,17.00
2018-12-03T11:15:30.267Z,16.38
2018-12-03T11:18:04.626Z,15.98
2018-12-03T11:20:37.745Z,16.03
2018-12-03T11:23:11.258Z,15.81
2018-12-03T11:25:45.309Z,15.70
2018-12-03T11:28:20.531Z,15.51
2018-12-03T11:30:55.907Z,15.56
2018-12-03T11:33:30.138Z,15.66
2018-12-03T11:36:03.639Z,15.92
2018-12-03T11:38:44.736Z,15.94
2018-12-03T11:41:18.338Z,16.09
2018-12-03T11:43:52.641Z,16.09
2018-12-03T11:46:26.383Z,15.81
2018-12-03T11:49:01.630Z,15.72
2018-12-03T11:51:35.644Z,15.53
2018-12-03T11:54:08.346Z,15.47
2018-12-03T11:56:41.529Z,15.43
2018-12-03T11:59:15.052Z,15.58
2018-12-03T12:01:48.212Z,15.46
2018-12-03T12:04:21.772Z,15.47
2018-12-03T12:06:54.978Z,15.75
2018-12-03T12:09:28.465Z,15.79
2018-12-03T12:12:01.526Z,15.76
2018-12-03T12:14:34.530Z,15.70
2018-12-03T12:17:08.377Z,15.47
2018-12-03T12:19:41.808Z,15.20
2018-12-03T12:22:15.060Z,14.53
2018-12-03T12:24:48.474Z,13.49
2018-12-03T12:27:21.699Z,12.88
2018-12-03T12:29:55.856Z,12.60
2018-12-03T12:32:29.539Z,12.75
2018-12-03T12:35:02.620Z,12.83
2018-12-03T12:37:35.890Z,13.00
2018-12-03T12:40:11.227Z,13.02
2018-12-03T12:42:45.841Z,13.08
2018-12-03T12:45:21.898Z,13.14
2018-12-03T12:47:54.958Z,13.11
2018-12-03T12:50:28.543Z,13.19
2018-12-03T12:53:02.165Z,13.15
2018-12-03T12:55:37.482Z,13.12
2018-12-03T12:58:11.255Z,13.20
2018-12-03T13:00:44.916Z,13.24
2018-12-03T13:03:18.372Z,13.48
2018-12-03T13:05:51.613Z,13.65
2018-12-03T13:08:29.259Z,13.68
2018-12-03T13:11:02.603Z,13.83
2018-12-03T13:13:35.758Z,14.15
2018-12-03T13:16:08.620Z,14.19
2018-12-03T13:18:41.680Z,14.28
2018-12-03T13:21:17.005Z,14.18
2018-12-03T13:23:50.254Z,14.18
2018-12-03T13:26:23.376Z,14.24
2018-12-03T13:31:25.617Z,14.14
2018-12-03T13:34:01.396Z,14.16
2018-12-03T13:36:34.623Z,14.17
2018-12-03T13:39:10.519Z,14.49
2018-12-03T13:41:44.046Z,14.67
2018-12-03T13:44:19.627Z,14.84
2018-12-03T13:46:52.394Z,14.71
2018-12-03T13:49:27.624Z,14.64
2018-12-03T13:52:01.084Z,14.38
2018-12-03T13:54:34.639Z,14.54
2018-12-03T13:57:09.902Z,14.55
2018-12-03T13:59:43.251Z,14.36
2018-12-03T14:02:16.634Z,14.21
2018-12-03T14:04:49.616Z,14.10
2018-12-03T14:07:28.885Z,13.88
2018-12-03T14:11:13.730Z,13.80
2018-12-03T14:15:07.476Z,13.67
2018-12-03T14:17:45.873Z,13.53
2018-12-03T14:20:20.551Z,13.55
2018-12-03T14:23:03.060Z,13.47
2018-12-03T14:25:37.236Z,13.38
2018-12-03T14:28:09.379Z,13.39
2018-12-03T14:30:43.340Z,13.41
2018-12-03T14:33:18.328Z,13.34
2018-12-03T14:35:51.548Z,13.37
2018-12-03T14:38:24.389Z,13.32
2018-12-03T14:40:57.815Z,13.24
2018-12-03T14:43:31.572Z,13.22
2018-12-03T14:46:04.310Z,13.10
2018-12-03T14:48:38.197Z,13.00
2018-12-03T14:51:11.759Z,13.04
2018-12-03T14:53:44.991Z,12.93
2018-12-03T14:56:17.728Z,12.90
2018-12-03T14:58:50.878Z,12.88
2018-12-03T15:01:24.643Z,12.86
2018-12-03T15:03:58.899Z,12.81
2018-12-03T15:06:31.907Z,12.69
2018-12-03T15:09:07.520Z,12.64
2018-12-03T15:11:41.121Z,12.65
2018-12-03T15:14:14.366Z,12.60
2018-12-03T15:16:47.481Z,12.48
2018-12-03T15:19:20.704Z,12.47
2018-12-03T15:21:53.564Z,12.45
2018-12-03T15:24:27.128Z,12.39
2018-12-03T15:26:59.977Z,12.31
2018-12-03T15:29:33.304Z,12.25
2018-12-03T15:32:06.334Z,12.21
2018-12-03T15:34:37.706Z,12.11
2018-12-03T15:37:11.070Z,12.07
2018-12-03T15:39:44.624Z,11.96
2018-12-03T15:42:17.904Z,11.97
2018-12-03T15:44:51.188Z,11.76
2018-12-03T15:47:25.519Z,11.60
2018-12-03T15:49:58.970Z,11.46
2018-12-03T15:52:35.074Z,11.38
2018-12-03T15:55:09.493Z,11.23
2018-12-03T15:57:44.394Z,11.12
2018-12-03T16:00:17.446Z,10.98
2018-12-03T16:02:50.835Z,10.95
2018-12-03T16:05:26.068Z,10.77
2018-12-03T16:08:00.164Z,10.78
2018-12-03T16:10:33.322Z,10.51
2018-12-03T16:13:07.075Z,10.47
2018-12-03T16:15:40.378Z,10.36
2018-12-03T16:18:13.602Z,10.29
2018-12-03T16:20:47.003Z,10.28
2018-12-03T16:23:25.298Z,10.22
2018-12-03T16:25:58.259Z,10.15
2018-12-03T16:28:31.854Z,10.11
2018-12-03T16:31:05.026Z,10.08
2018-12-03T16:33:38.607Z,10.11
2018-12-03T16:36:12.589Z,10.14
2018-12-03T16:38:46.189Z,10.13
2018-12-03T16:44:47.558Z,10.03
2018-12-03T16:47:22.990Z,10.02
2018-12-03T16:49:58.232Z,10.01
2018-12-03T16:52:31.289Z,10.08
2018-12-03T16:55:06.407Z,10.12
2018-12-03T16:57:39.488Z,10.19
2018-12-03T17:00:14.560Z,10.27
2018-12-03T17:02:47.492Z,10.38
2018-12-03T17:05:20.816Z,10.52
2018-12-03T17:07:54.138Z,10.65
2018-12-03T17:10:27.009Z,10.65
2018-12-03T17:13:00.913Z,10.84
2018-12-03T17:15:36.625Z,10.90
2018-12-03T17:18:10.168Z,10.92
2018-12-03T17:20:56.552Z,10.95
2018-12-03T17:24:00.590Z,11.01
2018-12-03T17:26:36.061Z,11.06
2018-12-03T17:29:11.227Z,11.10
2018-12-03T17:31:44.741Z,11.07
2018-12-03T17:34:17.383Z,11.21
2018-12-03T17:36:50.668Z,11.33
2018-12-03T17:39:23.907Z,11.28
2018-12-03T17:41:57.294Z,11.26
2018-12-03T17:44:33.082Z,11.33
2018-12-03T17:47:06.583Z,11.35
2018-12-03T17:49:40.098Z,11.36
2018-12-03T17:52:14.617Z,11.39
2018-12-03T17:54:48.200Z,11.50
2018-12-03T17:57:21.551Z,11.47
2018-12-03T17:59:55.459Z,11.48
2018-12-03T18:02:29.062Z,11.58
2018-12-03T18:05:02.150Z,11.53
2018-12-03T18:07:35.494Z,11.62
2018-12-03T18:10:10.989Z,11.56
2018-12-03T18:12:44.717Z,11.62
2018-12-03T18:15:17.391Z,11.62
2018-12-03T18:17:50.744Z,11.62
2018-12-03T18:20:23.812Z,11.60
2018-12-03T18:22:55.432Z,11.58
2018-12-03T18:25:28.354Z,11.63
2018-12-03T18:28:02.125Z,11.64
2018-12-03T18:30:35.878Z,11.90
2018-12-03T18:33:11.109Z,11.85
2018-12-03T18:35:44.511Z,11.72
2018-12-03T18:38:18.074Z,11.63
2018-12-03T18:40:51.307Z,11.53
2018-12-03T18:43:24.158Z,11.42
2018-12-03T18:45:57.316Z,11.38
2018-12-03T18:48:30.650Z,11.39
2018-12-03T18:51:05.772Z,11.45
2018-12-03T18:53:39.035Z,11.41
2018-12-03T18:56:14.190Z,11.46
2018-12-03T18:58:52.179Z,11.49
2018-12-03T19:01:25.432Z,11.53
2018-12-03T19:03:58.780Z,11.53
2018-12-03T19:06:32.656Z,11.58
2018-12-03T19:09:08.542Z,11.54
2018-12-03T19:11:43.589Z,11.50
2018-12-03T19:14:16.369Z,11.55
2018-12-03T19:16:49.598Z,11.52
2018-12-03T19:19:24.920Z,11.50
2018-12-03T19:21:58.294Z,11.53
2018-12-03T19:24:31.742Z,11.46
2018-12-03T19:27:04.970Z,11.52
2018-12-03T19:29:44.732Z,11.57
2018-12-03T19:32:17.399Z,11.58
2018-12-03T19:34:50.601Z,11.60
2018-12-03T19:37:23.849Z,11.58
2018-12-03T19:39:57.058Z,11.56
2018-12-03T19:42:30.681Z,11.58
2018-12-03T19:45:07.226Z,11.51
2018-12-03T19:50:14.815Z,11.65
2018-12-03T19:52:51.674Z,11.69
2018-12-03T19:55:24.782Z,11.64
2018-12-03T19:58:22.372Z,11.63
2018-12-03T20:00:55.190Z,11.61
2018-12-03T20:03:29.023Z,11.55
2018-12-03T20:06:06.131Z,11.43
2018-12-03T20:08:43.293Z,11.43
2018-12-03T20:11:16.197Z,11.41
2018-12-03T20:13:49.543Z,11.35
2018-12-03T20:16:22.800Z,11.30
2018-12-03T20:18:57.922Z,11.28
2018-12-03T20:21:30.872Z,11.16
2018-12-03T20:24:07.992Z,11.03
2018-12-03T20:26:50.159Z,10.97
2018-12-03T20:30:04.349Z,10.98
2018-12-03T20:32:48.320Z,10.98
2018-12-03T20:35:28.521Z,11.01
2018-12-03T20:38:06.880Z,11.09
2018-12-03T20:40:48.586Z,11.11
2018-12-03T20:43:24.926Z,11.14
2018-12-03T20:46:08.647Z,11.17
2018-12-03T20:49:07.759Z,11.23
2018-12-03T20:51:43.130Z,11.24
2018-12-03T20:54:16.045Z,11.27
2018-12-03T20:56:49.073Z,11.22
2018-12-03T20:59:23.458Z,11.25
2018-12-03T21:01:58.610Z,11.24
2018-12-03T21:04:33.953Z,11.28
2018-12-03T21:07:06.081Z,11.33
2018-12-03T21:09:38.954Z,11.40
2018-12-03T21:12:12.138Z,11.30
2018-12-03T21:14:47.476Z,11.40
2018-12-03T21:17:22.012Z,11.33
2018-12-03T21:20:00.220Z,11.32
2018-12-03T21:22:33.091Z,11.32
2018-12-03T21:25:14.524Z,11.32
2018-12-03T21:27:47.214Z,11.25
2018-12-03T21:30:20.414Z,11.33
2018-12-03T21:32:53.668Z,11.47
2018-12-03T21:35:26.898Z,11.39
2018-12-03T21:38:00.449Z,11.52
2018-12-03T21:40:36.284Z,11.50
2018-12-03T21:43:09.268Z,11.54
2018-12-03T21:45:44.043Z,11.61
2018-12-03T21:48:15.631Z,11.62
2018-12-03T21:50:48.672Z,11.55
2018-12-03T21:53:25.189Z,11.55
2018-12-03T21:55:58.115Z,11.45
2018-12-03T21:58:31.549Z,11.39
2018-12-03T22:01:07.387Z,11.39
2018-12-03T22:03:43.022Z,11.49
2018-12-03T22:06:16.742Z,11.47
2018-12-03T22:08:51.939Z,11.44
2018-12-03T22:11:25.375Z,11.53
2018-12-03T22:14:02.091Z,11.52
2018-12-03T22:16:34.919Z,11.44
2018-12-03T22:19:08.418Z,11.38
2018-12-03T22:21:43.432Z,11.37
2018-12-03T22:24:16.946Z,11.32
2018-12-03T22:26:50.010Z,11.31
2018-12-03T22:29:23.177Z,11.45
2018-12-03T22:31:57.483Z,11.36
2018-12-03T22:34:30.685Z,11.34
2018-12-03T22:37:04.206Z,11.28
2018-12-03T22:39:37.090Z,11.30
2018-12-03T22:42:12.327Z,11.23
2018-12-03T22:44:47.394Z,11.24
2018-12-03T22:47:22.111Z,11.22
2018-12-03T22:49:55.093Z,11.20
2018-12-03T22:52:30.314Z,11.36
2018-12-03T22:55:03.920Z,11.34
2018-12-03T22:57:37.159Z,11.32
2018-12-03T23:00:20.093Z,11.35
2018-12-03T23:02:53.655Z,11.36
2018-12-03T23:05:27.945Z,11.33
2018-12-03T23:08:01.317Z,11.35
2018-12-03T23:10:34.498Z,11.37
2018-12-03T23:13:08.035Z,11.37
2018-12-03T23:15:41.073Z,11.34
2018-12-03T23:18:14.787Z,11.34
2018-12-03T23:20:47.802Z,11.29
2018-12-03T23:23:23.138Z,11.40
2018-12-03T23:25:58.832Z,11.34
2018-12-03T23:28:32.542Z,11.26
2018-12-03T23:31:05.827Z,11.28
2018-12-03T23:33:38.927Z,11.32
2018-12-03T23:36:13.142Z,11.35
2018-12-03T23:38:46.403Z,11.50
2018-12-03T23:41:19.498Z,11.37
2018-12-03T23:43:52.385Z,11.37
2018-12-03T23:46:26.148Z,11.35
2018-12-03T23:48:58.784Z,11.46
2018-12-03T23:51:36.191Z,11.53
2018-12-03T23:54:07.625Z,11.55
2018-12-03T23:56:40.814Z,11.60
2018-12-03T23:59:14.106Z,11.61
